Time;durP1;ratioP1;P1;durP2;ratioP2;P2;SDS_P1;SDS_P2;PMS_P1;PMS_P2;Temp;Humidity;BMP_temperature;BMP_pressure;BME280_temperature;BME280_humidity;BME280_pressure;Samples;Min_cycle;Max_cycle;Signal;HPM_P1;HPM_P2
2023/11/17 00:00:08;;;;;;;4.53;3.28;;;;;8.50;98196.00;;;;4935093;29;20525;-63
2023/11/17 00:02:35;;;;;;;4.07;2.55;;;;;8.60;98199.00;;;;4935256;29;20429;-63
2023/11/17 00:05:03;;;;;;;3.08;2.70;;;;;8.60;98196.00;;;;4934343;29;20098;-63
2023/11/17 00:07:30;;;;;;;4.50;3.03;;;;;8.60;98208.00;;;;4933494;29;20171;-62
2023/11/17 00:09:56;;;;;;;7.30;3.60;;;;;8.60;98224.00;;;;4934973;29;20062;-62
2023/11/17 00:12:23;;;;;;;4.43;3.08;;;;;8.60;98230.00;;;;4934968;29;20062;-62
2023/11/17 00:14:50;;;;;;;5.07;3.50;;;;;8.70;98233.00;;;;4934259;29;20048;-63
2023/11/17 00:17:17;;;;;;;5.38;3.22;;;;;8.60;98249.00;;;;4934823;29;20043;-64
2023/11/17 00:19:45;;;;;;;6.50;4.05;;;;;8.70;98250.00;;;;4934881;29;20048;-63
2023/11/17 00:22:13;;;;;;;3.55;3.25;;;;;8.70;98250.00;;;;4934771;29;20043;-63
2023/11/17 00:24:40;;;;;;;5.35;3.95;;;;;8.70;98254.00;;;;4934218;29;20060;-63
2023/11/17 00:27:09;;;;;;;4.85;3.88;;;;;8.70;98265.00;;;;4934604;29;20051;-63
2023/11/17 00:29:37;;;;;;;5.85;4.28;;;;;8.70;98273.00;;;;4938246;29;20051;-63
2023/11/17 00:32:05;;;;;;;7.57;4.70;;;;;8.70;98284.00;;;;4938552;29;20126;-63
2023/11/17 00:34:31;;;;;;;6.57;4.03;;;;;8.70;98287.00;;;;4937855;29;20142;-62
2023/11/17 00:37:00;;;;;;;4.72;4.03;;;;;8.70;98285.00;;;;4938443;29;20048;-63
2023/11/17 00:39:28;;;;;;;5.03;3.78;;;;;8.70;98290.00;;;;4921647;29;20107;-63
2023/11/17 00:41:58;;;;;;;6.43;4.20;;;;;8.70;98298.00;;;;4937151;29;20102;-63
2023/11/17 00:44:24;;;;;;;4.57;4.18;;;;;8.70;98304.00;;;;4937684;29;20122;-62
2023/11/17 00:46:53;;;;;;;7.32;4.43;;;;;8.80;98314.00;;;;4938296;29;20048;-62
2023/11/17 00:49:20;;;;;;;7.80;4.38;;;;;8.80;98319.00;;;;4936880;29;20048;-63
2023/11/17 00:51:48;;;;;;;6.95;4.22;;;;;8.80;98326.00;;;;4936894;29;20079;-63
2023/11/17 00:54:15;;;;;;;6.68;4.93;;;;;8.90;98328.00;;;;4937546;29;20055;-62
2023/11/17 00:56:42;;;;;;;6.90;5.00;;;;;8.90;98334.00;;;;4937131;29;20572;-64
2023/11/17 00:59:11;;;;;;;6.13;4.70;;;;;8.90;98339.00;;;;4938131;29;20126;-63
2023/11/17 01:01:39;;;;;;;9.23;4.80;;;;;9.00;98349.00;;;;4936817;29;20052;-63
2023/11/17 01:04:06;;;;;;;7.35;4.82;;;;;9.00;98350.00;;;;4937344;29;20047;-63
2023/11/17 01:06:33;;;;;;;5.80;4.47;;;;;9.10;98358.00;;;;4920316;29;20057;-63
2023/11/17 01:09:00;;;;;;;6.15;4.43;;;;;9.10;98368.00;;;;4936696;29;20043;-61
2023/11/17 01:11:27;;;;;;;6.20;4.38;;;;;9.10;98371.00;;;;4935779;29;20424;-62
2023/11/17 01:13:54;;;;;;;5.63;4.47;;;;;9.10;98375.00;;;;4934811;29;20416;-61
2023/11/17 01:16:21;;;;;;;4.93;4.10;;;;;9.00;98373.00;;;;4936522;29;20079;-62
2023/11/17 01:18:48;;;;;;;5.22;4.40;;;;;8.90;98391.00;;;;4936566;29;20044;-61
2023/11/17 01:21:15;;;;;;;5.40;4.35;;;;;8.90;98385.00;;;;4935173;29;20138;-62
2023/11/17 01:23:42;;;;;;;8.10;4.68;;;;;8.90;98387.00;;;;4934795;29;20052;-62
2023/11/17 01:26:08;;;;;;;6.72;4.78;;;;;8.90;98385.00;;;;4936540;29;20048;-62
2023/11/17 01:28:35;;;;;;;7.22;4.65;;;;;8.90;98395.00;;;;4919480;29;20082;-62
2023/11/17 01:31:04;;;;;;;7.35;4.55;;;;;8.90;98397.00;;;;4936411;29;20123;-62
2023/11/17 01:33:30;;;;;;;7.82;4.75;;;;;8.90;98406.00;;;;4934458;29;20048;-62
2023/11/17 01:35:58;;;;;;;7.90;4.45;;;;;8.90;98408.00;;;;4935222;29;20071;-64
2023/11/17 01:38:26;;;;;;;7.55;4.70;;;;;8.80;98406.00;;;;4918912;29;20044;-62
2023/11/17 01:40:56;;;;;;;7.70;4.20;;;;;8.70;98424.00;;;;4936385;29;20043;-61
2023/11/17 01:43:24;;;;;;;8.18;5.18;;;;;8.80;98423.00;;;;4919041;29;20602;-65
2023/11/17 01:45:52;;;;;;;7.65;4.70;;;;;8.70;98431.00;;;;4936247;29;20043;-61
2023/11/17 01:48:19;;;;;;;7.95;4.65;;;;;8.70;98431.00;;;;4936125;29;20054;-62
2023/11/17 01:50:48;;;;;;;9.27;5.13;;;;;8.70;98443.00;;;;4936047;29;20047;-62
2023/11/17 01:53:17;;;;;;;9.18;5.55;;;;;8.70;98434.00;;;;4936260;29;20047;-62
2023/11/17 01:55:45;;;;;;;6.47;4.80;;;;;8.70;98441.00;;;;4934287;29;20052;-62
2023/11/17 01:58:12;;;;;;;8.10;4.88;;;;;8.70;98438.00;;;;4936158;29;20063;-62
2023/11/17 02:00:39;;;;;;;6.07;4.80;;;;;8.70;98448.00;;;;4934686;29;20055;-62
2023/11/17 02:03:06;;;;;;;6.07;4.38;;;;;8.60;98442.00;;;;4934900;29;20052;-62
2023/11/17 02:05:34;;;;;;;8.50;4.03;;;;;8.60;98440.00;;;;4933903;29;20059;-62
2023/11/17 02:08:10;;;;;;;5.53;3.58;;;;;8.70;98452.00;;;;4899649;29;1050877;-62
2023/11/17 02:10:55;;;;;;;6.28;4.28;;;;;8.70;98446.00;;;;4935701;29;20556;-63
2023/11/17 02:13:37;;;;;;;5.15;4.05;;;;;8.70;98455.00;;;;4936482;29;20107;-66
2023/11/17 02:16:10;;;;;;;5.72;2.95;;;;;8.70;98444.00;;;;4936838;29;20058;-62
2023/11/17 02:18:49;;;;;;;10.10;3.47;;;;;8.70;98457.00;;;;4936830;29;20118;-62
2023/11/17 02:21:20;;;;;;;5.00;3.25;;;;;8.70;98457.00;;;;4935501;29;20056;-62
2023/11/17 02:23:51;;;;;;;5.30;2.95;;;;;8.70;98452.00;;;;4934867;29;20048;-63
2023/11/17 02:26:35;;;;;;;4.30;3.28;;;;;8.60;98460.00;;;;4919644;29;20048;-62
2023/11/17 02:29:23;;;;;;;7.38;3.88;;;;;8.60;98457.00;;;;4935341;29;20142;-62
2023/11/17 02:31:51;;;;;;;5.05;3.03;;;;;8.50;98464.00;;;;4936330;29;20044;-61
2023/11/17 02:34:24;;;;;;;3.88;3.10;;;;;8.50;98463.00;;;;4934856;29;20055;-61
2023/11/17 02:36:52;;;;;;;4.63;3.00;;;;;8.40;98467.00;;;;4919831;29;20055;-62
2023/11/17 02:39:25;;;;;;;7.28;3.20;;;;;8.40;98470.00;;;;4935115;29;20078;-63
2023/11/17 02:41:57;;;;;;;6.15;2.92;;;;;8.40;98467.00;;;;4936509;29;20070;-63
2023/11/17 02:44:29;;;;;;;3.90;2.88;;;;;8.40;98469.00;;;;4934434;29;20052;-62
2023/11/17 02:47:00;;;;;;;4.30;2.97;;;;;8.40;98477.00;;;;4935067;29;20394;-62
2023/11/17 02:49:46;;;;;;;4.63;2.80;;;;;8.50;98479.00;;;;4936305;29;20047;-62
2023/11/17 02:52:20;;;;;;;4.65;3.08;;;;;8.50;98475.00;;;;4935626;29;20115;-61
2023/11/17 02:54:48;;;;;;;4.85;2.80;;;;;8.40;98484.00;;;;4934303;29;20444;-62
2023/11/17 02:57:17;;;;;;;2.60;2.20;;;;;8.40;98479.00;;;;4935958;29;20047;-63
2023/11/17 02:59:44;;;;;;;5.65;3.03;;;;;8.30;98488.00;;;;4934740;29;20118;-62
2023/11/17 03:02:15;;;;;;;6.00;3.05;;;;;8.40;98493.00;;;;4935989;29;20043;-62
2023/11/17 03:04:42;;;;;;;3.35;2.15;;;;;8.40;98479.00;;;;4933923;29;20060;-63
2023/11/17 03:07:09;;;;;;;7.13;3.05;;;;;8.40;98494.00;;;;4934391;29;20505;-62
2023/11/17 03:09:35;;;;;;;4.38;2.67;;;;;8.40;98491.00;;;;4934554;29;20052;-62
2023/11/17 03:12:02;;;;;;;5.30;2.90;;;;;8.40;98494.00;;;;4936411;29;20044;-60
2023/11/17 03:14:29;;;;;;;5.43;3.22;;;;;8.40;98494.00;;;;4933764;29;20531;-61
2023/11/17 03:17:01;;;;;;;3.95;2.80;;;;;8.40;98503.00;;;;4934493;29;20059;-63
2023/11/17 03:19:30;;;;;;;4.97;2.55;;;;;8.50;98503.00;;;;4934439;29;20055;-62
2023/11/17 03:21:57;;;;;;;3.88;2.88;;;;;8.50;98509.00;;;;4935971;29;20054;-62
2023/11/17 03:24:25;;;;;;;5.72;2.78;;;;;8.50;98511.00;;;;4935252;29;20048;-61
2023/11/17 03:26:55;;;;;;;7.65;3.00;;;;;8.50;98514.00;;;;4934433;29;20183;-62
2023/11/17 03:29:26;;;;;;;5.32;2.95;;;;;8.50;98514.00;;;;4935360;29;20068;-62
2023/11/17 03:31:54;;;;;;;3.63;2.92;;;;;8.50;98521.00;;;;4935420;29;20420;-61
2023/11/17 03:34:29;;;;;;;7.22;3.40;;;;;8.50;98518.00;;;;4933558;29;20050;-62
2023/11/17 03:36:58;;;;;;;5.00;3.25;;;;;8.50;98522.00;;;;4934133;29;20527;-63
2023/11/17 03:39:25;;;;;;;6.07;3.25;;;;;8.40;98529.00;;;;4935406;29;20641;-62
2023/11/17 03:41:53;;;;;;;6.60;3.30;;;;;8.30;98525.00;;;;4935315;29;20044;-62
2023/11/17 03:44:24;;;;;;;4.68;3.03;;;;;8.30;98530.00;;;;4934485;29;20059;-62
2023/11/17 03:46:51;;;;;;;4.32;2.97;;;;;8.40;98535.00;;;;4935160;29;20079;-62
2023/11/17 03:49:21;;;;;;;5.47;3.17;;;;;8.30;98536.00;;;;4918123;29;20071;-62
2023/11/17 03:51:50;;;;;;;4.20;3.20;;;;;8.30;98548.00;;;;4935213;29;20450;-62
2023/11/17 03:54:24;;;;;;;4.20;3.22;;;;;8.30;98542.00;;;;4917563;29;20056;-63
2023/11/17 03:56:52;;;;;;;3.92;3.13;;;;;8.30;98548.00;;;;4935169;29;20043;-63
2023/11/17 03:59:21;;;;;;;3.88;2.95;;;;;8.20;98551.00;;;;4934904;29;20122;-62
2023/11/17 04:01:49;;;;;;;7.13;3.22;;;;;8.20;98555.00;;;;4933751;29;20035;-62
2023/11/17 04:04:18;;;;;;;5.78;3.10;;;;;8.30;98555.00;;;;4933189;29;20401;-62
2023/11/17 04:06:49;;;;;;;4.10;3.40;;;;;8.30;98551.00;;;;4934816;29;20100;-61
2023/11/17 04:09:20;;;;;;;4.82;3.60;;;;;8.30;98553.00;;;;4935079;29;20043;-63
2023/11/17 04:11:48;;;;;;;5.35;3.70;;;;;8.30;98551.00;;;;4933818;29;20054;-63
2023/11/17 04:14:16;;;;;;;4.90;3.28;;;;;8.30;98562.00;;;;4917200;29;20054;-60
2023/11/17 04:16:42;;;;;;;6.15;3.63;;;;;8.30;98556.00;;;;4934764;29;20131;-61
2023/11/17 04:19:10;;;;;;;4.93;3.55;;;;;8.30;98563.00;;;;4933854;29;20063;-60
2023/11/17 04:21:37;;;;;;;5.40;3.30;;;;;8.20;98562.00;;;;4934806;29;20119;-60
2023/11/17 04:24:04;;;;;;;5.55;3.70;;;;;8.20;98573.00;;;;4933034;29;20051;-60
2023/11/17 04:26:30;;;;;;;6.63;3.90;;;;;8.20;98561.00;;;;4933512;29;20106;-60
2023/11/17 04:28:57;;;;;;;4.22;3.55;;;;;8.20;98560.00;;;;4934863;29;20050;-60
2023/11/17 04:31:24;;;;;;;7.10;4.30;;;;;8.20;98556.00;;;;4933616;29;20047;-60
2023/11/17 04:33:50;;;;;;;7.25;4.32;;;;;8.20;98557.00;;;;4932786;29;20501;-61
2023/11/17 04:36:17;;;;;;;7.35;4.28;;;;;8.20;98560.00;;;;4934783;29;20069;-61
2023/11/17 04:38:44;;;;;;;6.38;4.38;;;;;8.20;98561.00;;;;4934944;29;20046;-60
2023/11/17 04:41:11;;;;;;;5.55;4.55;;;;;8.20;98562.00;;;;4934712;29;20577;-62
2023/11/17 04:43:38;;;;;;;5.95;4.60;;;;;8.30;98566.00;;;;4932731;29;20071;-60
2023/11/17 04:46:06;;;;;;;8.68;4.95;;;;;8.30;98573.00;;;;4934712;29;20568;-60
2023/11/17 04:48:34;;;;;;;6.72;4.90;;;;;8.30;98576.00;;;;4934479;29;20130;-60
2023/11/17 04:51:00;;;;;;;6.95;4.53;;;;;8.40;98571.00;;;;4933644;29;20054;-60
2023/11/17 04:53:27;;;;;;;10.13;4.55;;;;;8.40;98570.00;;;;4934308;29;20043;-60
2023/11/17 04:55:54;;;;;;;6.18;4.65;;;;;8.40;98580.00;;;;4939882;29;20068;-61
2023/11/17 04:58:20;;;;;;;7.20;4.88;;;;;8.40;98576.00;;;;4938893;29;20076;-61
2023/11/17 05:00:47;;;;;;;5.45;4.60;;;;;8.40;98580.00;;;;4940222;29;20047;-62
2023/11/17 05:03:14;;;;;;;7.18;4.68;;;;;8.40;98574.00;;;;4938561;29;20127;-62
2023/11/17 05:05:45;;;;;;;7.20;5.15;;;;;8.40;98575.00;;;;4940594;29;20051;-62
2023/11/17 05:08:16;;;;;;;5.75;4.70;;;;;8.40;98581.00;;;;4942502;29;20047;-61
2023/11/17 05:10:43;;;;;;;6.30;4.82;;;;;8.40;98593.00;;;;4940641;29;20057;-61
2023/11/17 05:13:12;;;;;;;7.55;5.05;;;;;8.40;98593.00;;;;4940762;29;20134;-61
2023/11/17 05:15:46;;;;;;;8.90;5.03;;;;;8.40;98594.00;;;;4945473;29;20515;-61
2023/11/17 05:18:13;;;;;;;7.72;5.07;;;;;8.50;98607.00;;;;4947418;29;20047;-61
2023/11/17 05:20:41;;;;;;;9.40;5.32;;;;;8.40;98603.00;;;;4946214;29;20572;-62
2023/11/17 05:23:12;;;;;;;5.57;4.80;;;;;8.40;98604.00;;;;4942383;29;20059;-63
2023/11/17 05:25:41;;;;;;;9.30;5.47;;;;;8.40;98608.00;;;;4939012;29;20391;-60
2023/11/17 05:28:08;;;;;;;7.43;5.20;;;;;8.40;98599.00;;;;4939336;29;20048;-61
2023/11/17 05:30:35;;;;;;;9.32;5.35;;;;;8.50;98606.00;;;;4940257;29;20126;-61
2023/11/17 05:33:05;;;;;;;7.85;5.18;;;;;8.50;98606.00;;;;4937658;29;20134;-63
2023/11/17 05:35:32;;;;;;;8.10;5.72;;;;;8.50;98610.00;;;;4920703;29;20066;-62
2023/11/17 05:37:59;;;;;;;8.20;5.38;;;;;8.60;98619.00;;;;4937819;29;20082;-61
2023/11/17 05:40:25;;;;;;;8.85;6.32;;;;;8.60;98618.00;;;;4938749;29;20107;-60
2023/11/17 05:42:52;;;;;;;8.88;5.95;;;;;8.60;98626.00;;;;4938848;29;20532;-63
2023/11/17 05:45:19;;;;;;;10.35;6.65;;;;;8.60;98617.00;;;;4920705;29;20458;-61
2023/11/17 05:47:46;;;;;;;9.52;6.32;;;;;8.60;98622.00;;;;4938557;29;20533;-59
2023/11/17 05:50:13;;;;;;;8.93;6.45;;;;;8.50;98622.00;;;;4937905;29;20047;-62
2023/11/17 05:52:41;;;;;;;8.10;5.95;;;;;8.50;98627.00;;;;4936191;29;20096;-60
2023/11/17 05:55:10;;;;;;;10.55;6.28;;;;;8.60;98631.00;;;;4936543;29;20497;-60
2023/11/17 05:57:42;;;;;;;13.85;7.47;;;;;8.60;98630.00;;;;4937355;29;20052;-62
2023/11/17 06:00:13;;;;;;;10.70;6.70;;;;;8.60;98629.00;;;;4935918;29;20561;-61
2023/11/17 06:02:40;;;;;;;9.73;6.50;;;;;8.60;98635.00;;;;4937117;29;20493;-61
2023/11/17 06:05:08;;;;;;;11.95;7.00;;;;;8.50;98635.00;;;;4935099;29;20561;-64
2023/11/17 06:07:35;;;;;;;12.60;7.50;;;;;8.50;98630.00;;;;4936920;29;20081;-62
2023/11/17 06:10:02;;;;;;;11.40;6.93;;;;;8.50;98635.00;;;;4937103;29;20044;-61
2023/11/17 06:12:31;;;;;;;10.68;7.15;;;;;8.50;98635.00;;;;4937048;29;20052;-61
2023/11/17 06:14:57;;;;;;;12.05;7.13;;;;;8.50;98628.00;;;;4936360;29;20047;-62
2023/11/17 06:17:25;;;;;;;11.80;8.02;;;;;8.50;98637.00;;;;4935677;29;20119;-62
2023/11/17 06:19:52;;;;;;;10.30;7.20;;;;;8.50;98636.00;;;;4936710;29;20405;-61
2023/11/17 06:22:18;;;;;;;14.25;7.25;;;;;8.50;98637.00;;;;4935564;29;20540;-61
2023/11/17 06:24:46;;;;;;;12.07;8.68;;;;;8.50;98634.00;;;;4934351;29;20740;-60
2023/11/17 06:27:13;;;;;;;10.82;7.43;;;;;8.50;98633.00;;;;4935846;29;20557;-60
2023/11/17 06:29:39;;;;;;;15.13;7.55;;;;;8.50;98631.00;;;;4935195;29;20074;-62
2023/11/17 06:32:06;;;;;;;14.13;7.80;;;;;8.60;98637.00;;;;4936350;29;20126;-61
2023/11/17 06:34:33;;;;;;;11.80;7.97;;;;;8.60;98637.00;;;;4934650;29;20397;-61
2023/11/17 06:37:00;;;;;;;12.10;8.45;;;;;8.50;98643.00;;;;4935203;29;20103;-61
2023/11/17 06:39:29;;;;;;;12.52;7.65;;;;;8.40;98641.00;;;;4935306;29;20511;-61
2023/11/17 06:41:56;;;;;;;13.02;8.45;;;;;8.50;98642.00;;;;4936346;29;20075;-63
2023/11/17 06:44:23;;;;;;;12.57;7.85;;;;;8.50;98649.00;;;;4935526;29;20048;-61
2023/11/17 06:46:51;;;;;;;14.77;8.50;;;;;8.50;98646.00;;;;4936259;29;20130;-61
2023/11/17 06:49:19;;;;;;;13.57;9.48;;;;;8.50;98647.00;;;;4936320;29;20432;-61
2023/11/17 06:51:50;;;;;;;14.63;9.07;;;;;8.50;98645.00;;;;4934880;29;20397;-62
2023/11/17 06:54:18;;;;;;;13.80;8.43;;;;;8.50;98650.00;;;;4934358;29;20050;-61
2023/11/17 06:56:46;;;;;;;14.38;8.68;;;;;8.50;98661.00;;;;4936574;29;20409;-62
2023/11/17 06:59:20;;;;;;;16.98;8.93;;;;;8.40;98656.00;;;;4934677;29;20548;-61
2023/11/17 07:01:50;;;;;;;14.63;8.77;;;;;8.40;98657.00;;;;4934608;29;20134;-62
2023/11/17 07:04:19;;;;;;;14.05;9.05;;;;;8.40;98659.00;;;;4935086;29;20043;-61
2023/11/17 07:06:47;;;;;;;14.70;9.25;;;;;8.40;98665.00;;;;4935590;29;20131;-61
2023/11/17 07:09:19;;;;;;;14.13;9.40;;;;;8.40;98667.00;;;;4935777;29;20047;-61
2023/11/17 07:11:47;;;;;;;16.90;9.50;;;;;8.50;98676.00;;;;4935666;29;20074;-61
2023/11/17 07:14:16;;;;;;;13.90;9.32;;;;;8.50;98681.00;;;;4934967;29;20078;-61
2023/11/17 07:16:44;;;;;;;16.70;9.75;;;;;8.50;98687.00;;;;4935573;29;20051;-62
2023/11/17 07:19:15;;;;;;;13.93;9.40;;;;;8.50;98688.00;;;;4935593;29;20050;-61
2023/11/17 07:21:50;;;;;;;15.52;9.77;;;;;8.50;98694.00;;;;4935582;29;20047;-62
2023/11/17 07:24:18;;;;;;;16.85;9.23;;;;;8.50;98692.00;;;;4933525;29;20146;-61
2023/11/17 07:26:46;;;;;;;15.00;10.30;;;;;8.50;98690.00;;;;4935429;29;20051;-61
2023/11/17 07:29:13;;;;;;;14.70;9.70;;;;;8.60;98698.00;;;;4935393;29;20044;-62
2023/11/17 07:31:44;;;;;;;16.58;9.95;;;;;8.60;98703.00;;;;4934235;29;20529;-61
2023/11/17 07:34:18;;;;;;;15.43;10.02;;;;;8.70;98704.00;;;;4918055;29;20048;-60
2023/11/17 07:36:47;;;;;;;12.98;9.63;;;;;8.60;98711.00;;;;4918141;29;20059;-62
2023/11/17 07:39:18;;;;;;;19.05;9.88;;;;;8.60;98717.00;;;;4935288;29;20040;-61
2023/11/17 07:41:45;;;;;;;15.25;9.10;;;;;8.70;98714.00;;;;4935259;29;20121;-61
2023/11/17 07:44:19;;;;;;;12.95;9.00;;;;;8.60;98722.00;;;;4933632;29;20222;-61
2023/11/17 07:46:46;;;;;;;16.25;10.68;;;;;8.70;98723.00;;;;4933967;29;20150;-62
2023/11/17 07:49:14;;;;;;;14.93;10.38;;;;;8.70;98726.00;;;;4933868;29;20044;-62
2023/11/17 07:51:47;;;;;;;15.70;10.38;;;;;8.70;98726.00;;;;4933902;29;20567;-61
2023/11/17 07:54:16;;;;;;;15.50;8.77;;;;;8.70;98727.00;;;;4917455;29;20063;-61
2023/11/17 07:56:42;;;;;;;16.83;9.80;;;;;8.70;98735.00;;;;4917993;29;20047;-62
2023/11/17 07:59:12;;;;;;;16.77;10.13;;;;;8.70;98737.00;;;;4933579;29;20116;-61
2023/11/17 08:01:39;;;;;;;14.63;10.00;;;;;8.70;98741.00;;;;4934911;29;20102;-62
2023/11/17 08:04:08;;;;;;;17.02;9.80;;;;;8.80;98746.00;;;;4934216;29;20043;-62
2023/11/17 08:06:36;;;;;;;19.23;11.35;;;;;8.80;98739.00;;;;4933547;29;20051;-62
2023/11/17 08:09:04;;;;;;;15.75;10.27;;;;;8.80;98748.00;;;;4933446;29;20552;-61
2023/11/17 08:11:30;;;;;;;16.55;10.00;;;;;8.90;98745.00;;;;4933641;29;20047;-62
2023/11/17 08:13:57;;;;;;;17.80;10.75;;;;;8.90;98743.00;;;;4934155;29;20098;-62
2023/11/17 08:16:24;;;;;;;16.70;10.65;;;;;8.90;98736.00;;;;4934651;29;20126;-61
2023/11/17 08:18:51;;;;;;;18.77;10.73;;;;;9.00;98742.00;;;;4934762;29;20465;-61
2023/11/17 08:21:17;;;;;;;15.95;11.13;;;;;9.10;98739.00;;;;4934635;29;20051;-62
2023/11/17 08:23:44;;;;;;;18.13;10.43;;;;;9.10;98744.00;;;;4934066;29;20073;-61
2023/11/17 08:26:15;;;;;;;18.42;10.93;;;;;9.10;98743.00;;;;4934654;29;20569;-62
2023/11/17 08:28:42;;;;;;;18.80;11.23;;;;;9.00;98746.00;;;;4934627;29;20569;-62
2023/11/17 08:31:12;;;;;;;18.13;10.45;;;;;9.00;98749.00;;;;4934491;29;20044;-62
2023/11/17 08:33:38;;;;;;;20.27;11.20;;;;;9.00;98754.00;;;;4934284;29;20047;-62
2023/11/17 08:36:09;;;;;;;19.52;11.27;;;;;9.00;98759.00;;;;4934578;29;20394;-63
2023/11/17 08:38:42;;;;;;;19.38;10.85;;;;;8.90;98764.00;;;;4933479;29;20048;-62
2023/11/17 08:41:12;;;;;;;20.30;11.13;;;;;9.00;98762.00;;;;4934754;29;20520;-62
2023/11/17 08:43:39;;;;;;;20.90;11.15;;;;;9.00;98761.00;;;;4934148;29;20058;-61
2023/11/17 08:46:07;;;;;;;16.80;11.40;;;;;9.00;98763.00;;;;4934327;29;20075;-61
2023/11/17 08:48:35;;;;;;;16.38;10.93;;;;;9.00;98779.00;;;;4933438;29;20058;-62
2023/11/17 08:51:06;;;;;;;15.77;11.45;;;;;9.10;98773.00;;;;4936956;29;20054;-62
2023/11/17 08:53:33;;;;;;;18.65;11.32;;;;;9.10;98767.00;;;;4936434;29;20055;-61
2023/11/17 08:56:00;;;;;;;17.17;9.85;;;;;9.20;98772.00;;;;4938060;29;20044;-62
2023/11/17 08:58:28;;;;;;;17.63;11.00;;;;;9.20;98765.00;;;;4936806;29;20055;-61
2023/11/17 09:00:57;;;;;;;14.38;9.70;;;;;9.20;98770.00;;;;4938197;29;20039;-62
2023/11/17 09:03:24;;;;;;;18.30;9.95;;;;;9.20;98764.00;;;;4937490;29;20496;-62
2023/11/17 09:05:51;;;;;;;17.73;10.48;;;;;9.20;98765.00;;;;4937976;29;20067;-62
2023/11/17 09:08:17;;;;;;;18.85;10.35;;;;;9.10;98758.00;;;;4937769;29;20071;-62
2023/11/17 09:10:44;;;;;;;18.42;11.20;;;;;9.20;98765.00;;;;4937997;29;20142;-62
2023/11/17 09:13:11;;;;;;;19.15;10.75;;;;;9.20;98768.00;;;;4938020;29;20473;-62
2023/11/17 09:15:38;;;;;;;19.60;10.52;;;;;9.20;98761.00;;;;4920347;29;20135;-62
2023/11/17 09:18:07;;;;;;;15.93;10.77;;;;;9.30;98780.00;;;;4937885;29;20135;-62
2023/11/17 09:20:36;;;;;;;18.67;11.15;;;;;9.40;98768.00;;;;4936726;29;20425;-63
2023/11/17 09:23:02;;;;;;;16.42;10.93;;;;;9.40;98770.00;;;;4937577;29;20739;-64
2023/11/17 09:25:29;;;;;;;18.95;11.57;;;;;9.50;98764.00;;;;4920042;29;20047;-62
2023/11/17 09:28:00;;;;;;;16.80;11.13;;;;;9.40;98766.00;;;;4937738;29;20055;-62
2023/11/17 09:30:33;;;;;;;16.80;10.68;;;;;9.50;98772.00;;;;4937478;29;20067;-62
2023/11/17 09:33:00;;;;;;;21.40;10.95;;;;;9.50;98772.00;;;;4937618;29;20445;-62
2023/11/17 09:35:27;;;;;;;18.77;10.88;;;;;9.60;98770.00;;;;4935508;29;20501;-63
2023/11/17 09:37:56;;;;;;;22.23;12.23;;;;;9.80;98778.00;;;;4936242;29;20408;-62
2023/11/17 09:40:25;;;;;;;15.75;10.75;;;;;9.90;98771.00;;;;4937529;29;20390;-63
2023/11/17 09:42:57;;;;;;;90.47;50.35;;;;;10.00;98774.00;;;;4936248;29;20052;-62
2023/11/17 09:45:25;;;;;;;17.65;11.07;;;;;10.10;98772.00;;;;4936638;29;20445;-62
2023/11/17 09:47:54;;;;;;;19.05;10.25;;;;;10.10;98785.00;;;;4935936;29;20469;-62
2023/11/17 09:50:27;;;;;;;20.27;10.77;;;;;10.20;98788.00;;;;4937334;29;20067;-62
2023/11/17 09:52:56;;;;;;;15.27;10.45;;;;;10.20;98777.00;;;;4937296;29;20564;-61
2023/11/17 09:55:27;;;;;;;16.77;10.23;;;;;10.30;98788.00;;;;4936386;29;20055;-62
2023/11/17 09:57:57;;;;;;;16.17;9.43;;;;;10.40;98794.00;;;;4936093;29;20168;-62
2023/11/17 10:00:27;;;;;;;16.08;10.00;;;;;10.30;98785.00;;;;4936629;29;20078;-62
2023/11/17 10:02:57;;;;;;;15.38;8.93;;;;;10.40;98792.00;;;;4936945;29;20048;-62
2023/11/17 10:05:25;;;;;;;14.52;9.30;;;;;10.40;98785.00;;;;4936196;29;20525;-63
2023/11/17 10:07:55;;;;;;;21.50;10.90;;;;;10.30;98785.00;;;;4936765;29;20044;-62
2023/11/17 10:10:23;;;;;;;11.95;9.25;;;;;10.30;98784.00;;;;4936840;29;20063;-63
2023/11/17 10:12:50;;;;;;;17.23;9.05;;;;;10.20;98793.00;;;;4935585;29;20044;-64
2023/11/17 10:15:24;;;;;;;15.02;9.50;;;;;10.20;98794.00;;;;4936118;29;20059;-62
2023/11/17 10:18:07;;;;;;;13.05;8.35;;;;;10.20;98796.00;;;;4935541;29;20142;-62
2023/11/17 10:20:38;;;;;;;10.70;8.13;;;;;10.20;98791.00;;;;4935420;29;20050;-63
2023/11/17 10:23:05;;;;;;;11.60;7.78;;;;;10.10;98792.00;;;;4936652;29;20123;-62
2023/11/17 10:25:33;;;;;;;7.35;6.13;;;;;10.10;98793.00;;;;4934693;29;20052;-62
2023/11/17 10:28:05;;;;;;;12.98;5.80;;;;;10.00;98799.00;;;;4936710;29;20107;-63
2023/11/17 10:30:37;;;;;;;5.78;4.18;;;;;9.90;98797.00;;;;4936444;29;20395;-62
2023/11/17 10:33:26;;;;;;;6.32;5.00;;;;;9.90;98787.00;;;;4935380;29;20055;-63
2023/11/17 10:36:12;;;;;;;4.72;4.22;;;;;10.00;98779.00;;;;4936220;29;20063;-62
2023/11/17 10:38:45;;;;;;;6.28;4.30;;;;;10.00;98791.00;;;;4936426;29;20048;-62
2023/11/17 10:41:30;;;;;;;6.70;4.43;;;;;10.10;98788.00;;;;4936578;29;20127;-63
2023/11/17 10:43:58;;;;;;;9.50;4.45;;;;;10.10;98787.00;;;;4935651;29;20071;-62
2023/11/17 10:46:29;;;;;;;5.72;4.40;;;;;10.20;98795.00;;;;4936094;29;20063;-63
2023/11/17 10:48:59;;;;;;;4.72;3.90;;;;;10.10;98787.00;;;;4936103;29;20052;-62
2023/11/17 10:51:27;;;;;;;7.50;4.55;;;;;10.10;98798.00;;;;4935986;29;20122;-62
2023/11/17 10:54:04;;;;;;;5.63;3.80;;;;;10.10;98798.00;;;;4935390;29;20071;-62
2023/11/17 10:56:35;;;;;;;5.00;3.47;;;;;10.10;98797.00;;;;4936014;29;20128;-63
2023/11/17 10:59:02;;;;;;;10.38;3.13;;;;;10.20;98800.00;;;;4935874;29;20052;-63
2023/11/17 11:01:31;;;;;;;5.63;4.30;;;;;10.20;98804.00;;;;4935887;29;20485;-63
2023/11/17 11:03:58;;;;;;;4.70;3.53;;;;;10.10;98799.00;;;;4918295;29;20048;-61
2023/11/17 11:06:26;;;;;;;4.95;3.05;;;;;10.10;98796.00;;;;4935381;29;20513;-63
2023/11/17 11:08:54;;;;;;;3.00;2.60;;;;;10.10;98796.00;;;;4936072;29;20118;-61
2023/11/17 11:11:23;;;;;;;3.47;2.70;;;;;10.00;98786.00;;;;4935491;29;20052;-62
2023/11/17 11:13:55;;;;;;;3.58;2.70;;;;;10.00;98794.00;;;;4935053;29;20048;-62
2023/11/17 11:16:24;;;;;;;3.08;2.63;;;;;10.00;98786.00;;;;4935681;29;20048;-62
2023/11/17 11:18:53;;;;;;;2.97;2.67;;;;;9.90;98793.00;;;;4934388;29;20103;-62
2023/11/17 11:21:21;;;;;;;3.67;2.70;;;;;10.00;98788.00;;;;4935605;29;20473;-62
2023/11/17 11:23:49;;;;;;;3.88;2.97;;;;;10.10;98787.00;;;;4933750;29;20512;-62
2023/11/17 11:26:17;;;;;;;3.95;2.83;;;;;10.20;98787.00;;;;4935469;29;20043;-62
2023/11/17 11:28:48;;;;;;;3.03;2.28;;;;;10.10;98797.00;;;;4935475;29;20058;-61
2023/11/17 11:31:15;;;;;;;2.92;2.42;;;;;10.10;98796.00;;;;4935268;29;20048;-62
2023/11/17 11:33:42;;;;;;;5.55;3.50;;;;;10.10;98804.00;;;;4933544;29;20070;-63
2023/11/17 11:36:11;;;;;;;3.20;2.90;;;;;10.10;98800.00;;;;4935178;29;20116;-62
2023/11/17 11:38:39;;;;;;;3.30;2.83;;;;;10.10;98796.00;;;;4935368;29;20094;-62
2023/11/17 11:41:15;;;;;;;2.80;2.38;;;;;10.20;98799.00;;;;4934187;29;20036;-62
2023/11/17 11:43:44;;;;;;;3.92;3.50;;;;;10.30;98796.00;;;;4934788;29;20083;-62
2023/11/17 11:46:16;;;;;;;3.35;2.40;;;;;10.40;98788.00;;;;4935090;29;20048;-62
2023/11/17 11:48:54;;;;;;;3.45;2.50;;;;;10.50;98795.00;;;;4935102;29;20111;-62
2023/11/17 11:51:24;;;;;;;4.35;2.92;;;;;10.50;98797.00;;;;4935210;29;20071;-63
2023/11/17 11:54:03;;;;;;;3.83;2.63;;;;;10.40;98797.00;;;;4934454;29;20048;-62
2023/11/17 11:56:33;;;;;;;2.70;2.20;;;;;10.40;98812.00;;;;4934226;29;20057;-62
2023/11/17 11:59:00;;;;;;;3.50;3.00;;;;;10.30;98807.00;;;;4935278;29;20066;-63
2023/11/17 12:01:32;;;;;;;4.38;3.30;;;;;10.30;98804.00;;;;4934963;29;20457;-63
2023/11/17 12:04:10;;;;;;;4.78;3.83;;;;;10.30;98806.00;;;;4934436;29;20127;-61
2023/11/17 12:06:41;;;;;;;3.80;3.45;;;;;10.20;98802.00;;;;4935076;29;20111;-61
2023/11/17 12:09:19;;;;;;;5.18;3.63;;;;;10.10;98807.00;;;;4935220;29;20044;-60
2023/11/17 12:11:49;;;;;;;3.70;3.28;;;;;10.10;98805.00;;;;4934947;29;20047;-61
2023/11/17 12:14:18;;;;;;;3.80;3.40;;;;;10.10;98802.00;;;;4934296;29;20044;-62
2023/11/17 12:16:54;;;;;;;6.32;4.60;;;;;10.20;98809.00;;;;4935098;29;20557;-61
2023/11/17 12:19:24;;;;;;;4.85;3.20;;;;;10.20;98809.00;;;;4934944;29;20083;-62
2023/11/17 12:21:50;;;;;;;4.78;3.22;;;;;10.20;98810.00;;;;4934692;29;20389;-61
2023/11/17 12:24:23;;;;;;;3.58;3.28;;;;;10.20;98803.00;;;;4937456;29;20054;-62
2023/11/17 12:26:52;;;;;;;5.10;3.45;;;;;10.30;98807.00;;;;4937803;29;20408;-62
2023/11/17 12:29:24;;;;;;;4.10;3.63;;;;;10.30;98808.00;;;;4938900;29;20051;-61